Time;durP1;ratioP1;P1;durP2;ratioP2;P2;SDS_P1;SDS_P2;PMS_P1;PMS_P2;Temp;Humidity;BMP_temperature;BMP_pressure;BME280_temperature;BME280_humidity;BME280_pressure;Samples;Min_cycle;Max_cycle;Signal;HPM_P1;HPM_P2
2023/09/15 00:00:48;;;;;;;11.70;1.73;;;;;;;22.17;47.58;99665.94;4917989;29;20051;-92
2023/09/15 00:03:16;;;;;;;1.55;1.08;;;;;;;22.61;47.51;99724.03;5296109;23;20902;-96
2023/09/15 00:05:41;;;;;;;3.88;1.65;;;;;;;22.03;47.97;99669.50;4972136;28;20045;-94
2023/09/15 00:08:07;;;;;;;3.53;2.42;;;;;;;21.95;48.19;99651.16;4975879;28;20026;-93
2023/09/15 00:10:39;;;;;;;0.85;0.80;;;;;;;22.14;47.48;99675.03;4974657;28;20061;-93
2023/09/15 00:13:05;;;;;;;1.48;0.85;;;;;;;22.01;47.70;99679.44;4971487;28;20068;-96
2023/09/15 00:15:30;;;;;;;9.65;3.25;;;;;;;22.14;47.32;99684.94;4973456;28;20493;-92
2023/09/15 00:17:56;;;;;;;2.95;1.33;;;;;;;22.05;47.78;99707.00;4974190;28;20188;-92
2023/09/15 00:20:22;;;;;;;5.85;1.85;;;;;;;21.71;48.08;99679.53;4959786;28;20133;-92
2023/09/15 00:22:51;;;;;;;3.97;2.80;;;;;;;21.44;48.69;99640.84;4990124;28;20034;-93
2023/09/15 00:25:30;;;;;;;2.67;1.40;;;;;;;21.17;48.95;99623.75;4972768;28;20038;-95
2023/09/15 00:27:57;;;;;;;13.32;3.10;;;;;;;21.38;48.94;99664.50;4945045;28;20589;-92
2023/09/15 00:30:24;;;;;;;2.00;1.00;;;;;;;21.41;48.92;99664.31;4956653;28;21079;-92
2023/09/15 00:32:51;;;;;;;1.70;0.75;;;;;;;21.46;48.71;99695.28;4975067;28;20393;-88
2023/09/15 00:35:18;;;;;;;4.95;2.58;;;;;;;21.51;48.49;99683.44;4989768;28;20092;-91
2023/09/15 00:37:46;;;;;;;2.80;1.35;;;;;;;21.49;47.88;99667.44;4956091;28;20039;-89
2023/09/15 00:40:13;;;;;;;2.33;1.75;;;;;;;21.41;47.71;99659.81;4955484;28;20897;-91
2023/09/15 00:42:42;;;;;;;4.65;2.85;;;;;;;21.79;47.14;99710.31;4972777;28;20084;-90
2023/09/15 00:45:09;;;;;;;4.20;0.90;;;;;;;21.74;46.96;99696.31;4955510;28;20034;-91
2023/09/15 00:47:35;;;;;;;1.77;1.10;;;;;;;21.66;46.75;99692.38;4973200;28;20412;-93
2023/09/15 00:50:03;;;;;;;10.30;3.95;;;;;;;21.32;46.60;99641.59;5246358;23;20517;-92
2023/09/15 00:52:29;;;;;;;3.35;1.65;;;;;;;21.37;46.33;99638.63;4966769;28;20150;-92
2023/09/15 00:54:56;;;;;;;1.63;1.20;;;;;;;21.74;46.21;99700.84;4975165;28;20041;-90
2023/09/15 00:57:24;;;;;;;2.30;1.15;;;;;;;22.03;45.85;99742.00;4984304;28;20085;-94
2023/09/15 00:59:49;;;;;;;2.08;1.05;;;;;;;21.94;45.94;99734.50;4971246;28;20532;-94
2023/09/15 01:02:15;;;;;;;0.85;0.85;;;;;;;22.08;45.32;99722.91;4975021;28;20307;-93
2023/09/15 01:04:41;;;;;;;34.55;3.88;;;;;;;21.70;44.91;99710.03;4987330;28;20073;-93
2023/09/15 01:07:07;;;;;;;3.78;1.73;;;;;;;21.69;44.59;99695.75;4960480;28;20062;-96
2023/09/15 01:09:33;;;;;;;2.45;1.70;;;;;;;21.75;44.34;99726.69;4957172;28;20097;-91
2023/09/15 01:11:58;;;;;;;0.90;0.70;;;;;;;21.63;44.41;99713.06;4954555;28;20965;-92
2023/09/15 01:14:24;;;;;;;3.60;2.42;;;;;;;21.42;44.27;99687.50;4955988;28;20054;-91
2023/09/15 01:17:00;;;;;;;6.22;2.25;;;;;;;21.70;44.11;99702.81;4959833;28;20034;-92
2023/09/15 01:19:53;;;;;;;2.60;1.88;;;;;;;21.63;44.16;99717.59;4978801;28;20030;-91
2023/09/15 01:23:04;;;;;;;0.85;0.60;;;;;;;21.65;45.05;99747.88;4972885;28;20097;-88
2023/09/15 01:26:30;;;;;;;1.75;1.13;;;;;;;21.14;45.52;99682.94;4974773;28;20035;-89
2023/09/15 01:29:19;;;;;;;1.40;1.30;;;;;;;21.41;46.50;99743.00;4896752;29;20050;-89
2023/09/15 01:31:47;;;;;;;2.88;1.35;;;;;;;21.01;47.10;99701.56;4892622;29;20571;-89
2023/09/15 01:34:16;;;;;;;4.35;2.53;;;;;;;20.87;47.43;99691.63;4895725;29;20044;-89
2023/09/15 01:36:43;;;;;;;1.90;1.80;;;;;;;21.09;47.36;99700.16;4896764;29;20032;-90
2023/09/15 01:39:09;;;;;;;2.42;1.25;;;;;;;21.05;47.50;99695.06;4895419;29;20047;-90
2023/09/15 01:41:35;;;;;;;4.70;1.50;;;;;;;21.53;47.41;99762.88;4897338;29;20411;-90
2023/09/15 01:44:01;;;;;;;3.22;0.93;;;;;;;21.21;47.46;99709.31;4895960;29;20039;-89
2023/09/15 01:46:26;;;;;;;12.48;1.10;;;;;;;21.19;47.78;99707.66;4899154;29;20043;-90
2023/09/15 01:48:55;;;;;;;1.40;1.23;;;;;;;21.37;47.69;99728.03;4910873;29;20042;-92
2023/09/15 01:51:21;;;;;;;5.03;1.25;;;;;;;21.19;47.41;99689.72;4913204;29;20035;-91
2023/09/15 01:53:51;;;;;;;4.30;1.50;;;;;;;21.04;47.79;99687.97;4934552;28;20062;-94
2023/09/15 01:56:18;;;;;;;1.20;0.70;;;;;;;21.26;47.91;99738.53;4933775;29;20118;-89
2023/09/15 01:58:43;;;;;;;1.35;1.10;;;;;;;21.06;48.32;99735.19;4932797;28;20046;-89
2023/09/15 02:01:09;;;;;;;2.50;1.25;;;;;;;21.28;48.42;99753.56;4934206;28;20455;-90
2023/09/15 02:03:34;;;;;;;2.30;1.75;;;;;;;21.09;48.37;99726.09;4928243;28;20421;-90
2023/09/15 02:06:04;;;;;;;1.30;1.17;;;;;;;21.05;48.29;99693.25;4955306;28;20035;-93
2023/09/15 02:08:34;;;;;;;1.15;1.05;;;;;;;21.25;48.98;99737.66;4967478;28;20133;-95
2023/09/15 02:11:00;;;;;;;7.80;2.80;;;;;;;20.98;49.30;99726.72;4963915;28;20117;-96
2023/09/15 02:13:25;;;;;;;3.30;1.83;;;;;;;20.99;49.57;99730.25;4975719;28;20501;-96
2023/09/15 02:15:54;;;;;;;1.02;0.77;;;;;;;20.79;49.79;99718.88;4974227;28;20037;-94
2023/09/15 02:18:35;;;;;;;3.92;1.88;;;;;;;20.66;49.77;99677.66;4977659;28;20045;-96
2023/09/15 02:21:00;;;;;;;2.63;1.63;;;;;;;20.52;50.25;99675.72;4974669;28;20052;-95
2023/09/15 02:23:26;;;;;;;3.60;2.25;;;;;;;20.70;50.55;99722.94;4993908;28;20029;-91
2023/09/15 02:25:52;;;;;;;6.10;1.27;;;;;;;20.83;50.33;99732.97;5009973;28;20034;-90
2023/09/15 02:28:19;;;;;;;3.42;2.40;;;;;;;20.66;50.76;99686.53;5362910;23;20039;-91
2023/09/15 02:30:45;;;;;;;1.65;1.55;;;;;;;21.01;50.67;99774.81;4983531;28;20552;-92
2023/09/15 02:33:11;;;;;;;2.60;1.50;;;;;;;20.77;50.95;99749.41;4974466;28;20049;-91
2023/09/15 02:35:37;;;;;;;2.55;1.02;;;;;;;20.64;51.12;99727.75;4965345;28;20034;-92
2023/09/15 02:38:03;;;;;;;1.70;1.52;;;;;;;20.71;51.01;99753.28;4958735;28;20484;-93
2023/09/15 02:40:30;;;;;;;2.92;2.17;;;;;;;20.86;51.26;99798.00;4958027;28;20046;-92
2023/09/15 02:42:55;;;;;;;1.70;1.30;;;;;;;20.53;51.19;99747.13;4976555;28;20038;-92
2023/09/15 02:45:20;;;;;;;1.77;1.45;;;;;;;20.51;51.03;99760.59;4994592;28;20412;-92
2023/09/15 02:47:46;;;;;;;1.63;1.45;;;;;;;20.33;51.08;99729.47;4974335;28;20038;-90
2023/09/15 02:50:11;;;;;;;3.80;3.00;;;;;;;20.63;51.12;99785.84;4992025;28;20489;-93
2023/09/15 02:52:37;;;;;;;8.35;3.67;;;;;;;20.40;51.35;99738.88;4993023;28;20038;-90
2023/09/15 02:55:08;;;;;;;11.20;2.85;;;;;;;20.42;51.19;99746.81;4976774;28;20206;-91
2023/09/15 02:57:34;;;;;;;1.85;1.70;;;;;;;20.16;51.97;99730.38;4976533;28;20061;-90
2023/09/15 02:59:59;;;;;;;2.42;1.27;;;;;;;20.38;51.94;99760.38;4977527;28;20030;-94
2023/09/15 03:05:43;;;;;;;8.52;2.72;;;;;;;20.33;53.14;99786.56;5209804;23;20481;-94
2023/09/15 03:08:10;;;;;;;1.75;1.45;;;;;;;20.07;53.66;99761.19;4978661;28;20128;-95
2023/09/15 03:10:36;;;;;;;4.13;3.08;;;;;;;20.31;53.46;99782.22;4981490;28;20030;-90
2023/09/15 03:13:03;;;;;;;2.47;1.98;;;;;;;20.15;52.47;99753.59;4995695;28;20511;-91
2023/09/15 03:15:29;;;;;;;11.75;2.58;;;;;;;20.43;52.60;99794.97;4960504;28;20072;-89
2023/09/15 03:17:55;;;;;;;9.20;2.10;;;;;;;20.33;51.95;99775.84;4993564;28;20476;-90
2023/09/15 03:20:21;;;;;;;2.95;2.13;;;;;;;20.25;52.85;99786.13;4976552;28;20061;-91
2023/09/15 03:22:47;;;;;;;4.25;2.72;;;;;;;19.81;54.37;99774.13;4975849;28;20037;-91
2023/09/15 03:25:16;;;;;;;2.30;1.42;;;;;;;19.78;53.97;99735.97;4977782;28;20038;-91
2023/09/15 03:27:41;;;;;;;1.90;1.55;;;;;;;20.20;54.01;99789.06;4994300;28;20041;-90
2023/09/15 03:30:07;;;;;;;3.78;2.03;;;;;;;19.94;53.82;99766.34;4992967;28;20034;-88
2023/09/15 03:32:33;;;;;;;3.42;2.47;;;;;;;19.42;54.79;99750.28;4984387;28;20525;-88
2023/09/15 03:34:59;;;;;;;3.28;2.35;;;;;;;19.31;55.34;99758.84;4994472;28;20030;-89
2023/09/15 03:37:25;;;;;;;6.45;1.83;;;;;;;19.51;55.38;99803.31;5013076;28;20033;-89
2023/09/15 03:39:51;;;;;;;1.83;1.70;;;;;;;19.26;56.54;99795.63;4991970;28;20038;-88
2023/09/15 03:42:18;;;;;;;2.33;1.95;;;;;;;19.34;56.43;99804.13;5012820;28;20094;-89
2023/09/15 03:44:43;;;;;;;4.55;1.85;;;;;;;19.21;57.43;99789.63;5012377;28;20060;-89
2023/09/15 03:47:09;;;;;;;5.07;2.05;;;;;;;19.14;57.44;99765.88;5013124;28;20068;-89
2023/09/15 03:49:35;;;;;;;2.40;1.73;;;;;;;19.00;57.12;99722.03;5006657;28;20034;-91
2023/09/15 03:52:00;;;;;;;0.85;0.85;;;;;;;19.45;57.08;99816.97;4993967;28;20034;-89
2023/09/15 03:54:26;;;;;;;10.00;1.95;;;;;;;19.44;56.40;99808.06;4965756;28;20030;-90
2023/09/15 03:56:53;;;;;;;4.15;1.92;;;;;;;19.16;57.00;99802.38;4976085;28;20066;-88
2023/09/15 03:59:18;;;;;;;3.45;1.73;;;;;;;19.50;56.90;99866.63;5013191;28;20041;-88
2023/09/15 04:01:47;;;;;;;11.35;2.08;;;;;;;19.29;56.46;99812.41;5005389;28;20034;-88
2023/09/15 04:04:12;;;;;;;10.73;2.85;;;;;;;19.49;56.32;99830.13;5012873;28;20042;-88
2023/09/15 04:06:38;;;;;;;1.85;1.58;;;;;;;19.55;56.20;99822.72;5011650;28;20121;-89
2023/09/15 04:09:12;;;;;;;3.08;2.78;;;;;;;19.58;56.43;99814.56;5011995;28;20053;-88
2023/09/15 04:11:39;;;;;;;2.55;1.05;;;;;;;19.33;56.55;99795.22;5003086;28;20026;-91
2023/09/15 04:14:05;;;;;;;6.50;4.57;;;;;;;19.07;57.51;99788.50;4977870;28;20475;-91
2023/09/15 04:16:31;;;;;;;4.13;2.53;;;;;;;19.30;57.79;99842.66;4978014;28;20047;-93
2023/09/15 04:18:57;;;;;;;1.35;1.05;;;;;;;19.30;58.09;99842.66;5000710;28;20034;-88
2023/09/15 04:21:22;;;;;;;1.85;1.05;;;;;;;19.42;57.65;99820.66;4991899;28;20089;-87
2023/09/15 04:23:48;;;;;;;4.10;2.58;;;;;;;19.16;58.76;99786.34;4986514;28;20033;-88
2023/09/15 04:26:14;;;;;;;4.75;2.65;;;;;;;19.78;58.72;99907.25;4987618;28;20461;-94
2023/09/15 04:28:39;;;;;;;5.40;2.88;;;;;;;19.36;58.48;99829.00;4968688;28;20060;-89
2023/09/15 04:31:05;;;;;;;5.00;3.17;;;;;;;19.35;58.71;99821.91;4989881;28;20041;-88
2023/09/15 04:33:30;;;;;;;2.15;1.95;;;;;;;19.49;59.27;99827.47;4960967;28;20134;-89
2023/09/15 04:35:56;;;;;;;3.65;2.15;;;;;;;19.88;59.28;99896.94;4992344;28;20042;-90
2023/09/15 04:38:22;;;;;;;3.53;2.33;;;;;;;19.72;59.79;99886.97;4974262;28;20049;-86
2023/09/15 04:40:48;;;;;;;2.80;2.22;;;;;;;19.52;60.24;99855.84;4976540;28;20492;-89
2023/09/15 04:43:16;;;;;;;3.67;2.33;;;;;;;19.57;60.26;99845.81;4974721;28;20034;-91
2023/09/15 04:45:43;;;;;;;6.20;3.40;;;;;;;19.54;59.92;99826.34;4972578;28;20101;-90
2023/09/15 04:48:09;;;;;;;3.83;2.78;;;;;;;19.71;59.89;99860.28;4988665;28;20042;-91
2023/09/15 04:50:37;;;;;;;6.80;2.35;;;;;;;19.42;60.08;99838.53;4991361;28;20054;-96
2023/09/15 04:53:07;;;;;;;3.67;2.25;;;;;;;19.67;59.84;99873.81;4991944;28;20038;-96
2023/09/15 04:55:38;;;;;;;10.10;3.88;;;;;;;19.78;60.40;99875.97;4996058;28;20026;-96
2023/09/15 04:58:08;;;;;;;2.33;1.98;;;;;;;19.89;60.55;99882.63;4978280;28;20061;-96
2023/09/15 05:00:35;;;;;;;9.80;4.57;;;;;;;19.77;60.57;99836.81;4996816;28;20093;-95
2023/09/15 05:03:02;;;;;;;6.20;3.65;;;;;;;20.32;59.15;99910.72;4976789;28;20030;-95
2023/09/15 05:05:29;;;;;;;5.53;2.35;;;;;;;20.29;58.72;99889.44;4963986;28;20054;-91
2023/09/15 05:07:56;;;;;;;8.10;3.42;;;;;;;20.09;58.48;99844.97;4982320;28;20034;-87
2023/09/15 05:10:22;;;;;;;4.18;2.95;;;;;;;20.25;58.21;99862.91;4981615;28;20037;-88
2023/09/15 05:12:48;;;;;;;3.45;1.48;;;;;;;20.50;57.74;99884.78;4994505;28;20034;-87
2023/09/15 05:15:13;;;;;;;2.92;1.83;;;;;;;20.37;56.80;99841.72;4973893;28;20027;-89
2023/09/15 05:17:40;;;;;;;1.67;1.52;;;;;;;20.61;55.48;99864.59;4971078;28;20034;-89
2023/09/15 05:20:06;;;;;;;2.35;0.90;;;;;;;20.61;55.50;99854.75;4984106;28;20031;-90
2023/09/15 05:22:31;;;;;;;1.95;1.58;;;;;;;21.03;54.69;99890.03;4977740;28;20510;-90
2023/09/15 05:24:58;;;;;;;2.38;1.65;;;;;;;21.19;54.45;99908.81;4989517;28;20085;-91
2023/09/15 05:27:23;;;;;;;4.18;2.45;;;;;;;21.00;54.36;99829.38;4961649;28;20046;-92
2023/09/15 05:29:50;;;;;;;8.45;3.17;;;;;;;21.61;54.00;99945.81;4991353;28;20038;-95
2023/09/15 05:32:16;;;;;;;3.50;1.50;;;;;;;21.31;54.32;99865.19;4973290;28;20043;-94
2023/09/15 05:34:41;;;;;;;2.42;2.22;;;;;;;21.50;54.21;99873.09;4983335;28;20030;-96
2023/09/15 05:37:07;;;;;;;1.92;1.42;;;;;;;21.72;53.85;99904.94;4966988;28;20042;-92
2023/09/15 05:39:32;;;;;;;2.10;1.50;;;;;;;21.80;53.78;99869.59;4980834;28;20413;-90
2023/09/15 05:41:58;;;;;;;1.88;1.52;;;;;;;21.82;53.58;99843.50;4979222;28;20046;-89
2023/09/15 05:44:24;;;;;;;10.40;3.65;;;;;;;22.39;52.34;99934.16;4985780;28;20030;-91
2023/09/15 05:46:50;;;;;;;9.55;3.65;;;;;;;22.26;52.76;99893.72;4973670;28;20092;-91
2023/09/15 05:49:15;;;;;;;5.50;2.10;;;;;;;22.28;52.17;99856.84;4980770;28;20482;-91
2023/09/15 05:51:41;;;;;;;4.38;1.90;;;;;;;22.67;52.12;99886.78;4982075;28;20520;-89
2023/09/15 05:54:07;;;;;;;2.58;2.05;;;;;;;23.02;51.27;99908.75;4989590;28;20029;-89
2023/09/15 05:56:33;;;;;;;2.67;2.15;;;;;;;23.02;50.51;99894.47;4971698;28;20027;-90
2023/09/15 05:58:58;;;;;;;3.30;2.20;;;;;;;22.77;49.61;99865.53;4990094;28;20030;-93
2023/09/15 06:01:24;;;;;;;5.32;2.17;;;;;;;22.90;49.59;99874.56;4977535;28;20068;-92
2023/09/15 06:03:49;;;;;;;2.40;1.65;;;;;;;23.22;49.29;99903.97;4978067;28;20066;-92
2023/09/15 06:06:18;;;;;;;2.35;1.85;;;;;;;23.21;48.95;99859.19;4954126;28;20031;-88
2023/09/15 06:08:44;;;;;;;1.98;1.17;;;;;;;23.73;48.76;99884.50;4963008;28;20101;-95
2023/09/15 06:11:10;;;;;;;2.00;1.80;;;;;;;23.85;47.80;99886.41;4955270;28;20035;-91
2023/09/15 06:13:37;;;;;;;2.33;1.73;;;;;;;24.30;46.73;99930.03;4972067;28;20042;-92
2023/09/15 06:16:04;;;;;;;2.10;1.23;;;;;;;24.35;46.82;99874.97;4965239;28;20042;-92
2023/09/15 06:18:31;;;;;;;2.83;1.77;;;;;;;24.67;46.36;99913.19;4938835;28;20050;-93
2023/09/15 06:20:57;;;;;;;2.35;0.82;;;;;;;24.81;45.00;99860.97;4958066;28;20061;-93
2023/09/15 06:23:24;;;;;;;3.92;2.40;;;;;;;25.27;44.34;99935.91;4951107;28;20034;-93
2023/09/15 06:25:51;;;;;;;1.95;1.25;;;;;;;25.12;44.19;99875.78;4946236;28;20027;-90
2023/09/15 06:28:16;;;;;;;12.32;2.60;;;;;;;25.32;42.82;99878.91;4952848;28;20043;-88
2023/09/15 06:30:42;;;;;;;1.98;1.52;;;;;;;25.38;43.56;99894.66;4954913;28;20035;-90
2023/09/15 06:33:07;;;;;;;6.85;3.67;;;;;;;25.26;43.15;99866.69;4948851;28;20525;-91
2023/09/15 06:35:33;;;;;;;3.92;2.28;;;;;;;25.67;42.57;99854.66;4951132;29;20059;-91
2023/09/15 06:37:58;;;;;;;3.88;2.15;;;;;;;25.89;41.27;99883.59;4950811;29;20036;-89
2023/09/15 06:40:24;;;;;;;3.20;1.75;;;;;;;25.84;41.51;99853.38;4951756;29;20048;-91
2023/09/15 06:42:49;;;;;;;2.70;1.83;;;;;;;25.84;41.61;99860.63;4950458;29;20058;-88
2023/09/15 06:45:16;;;;;;;3.35;2.05;;;;;;;26.18;41.63;99910.28;4951482;29;20043;-92
2023/09/15 06:47:42;;;;;;;5.43;2.22;;;;;;;26.16;41.89;99912.22;4934253;28;20399;-90
2023/09/15 06:50:08;;;;;;;9.43;4.18;;;;;;;26.29;41.61;99868.91;4951430;29;20058;-90
2023/09/15 06:52:33;;;;;;;4.38;2.42;;;;;;;26.38;41.35;99899.75;4933775;29;20037;-89
2023/09/15 06:54:59;;;;;;;1.77;1.52;;;;;;;26.48;41.37;99859.31;4950597;28;20031;-88
2023/09/15 06:57:24;;;;;;;11.85;2.95;;;;;;;26.65;41.79;99909.38;4951427;29;20090;-89
2023/09/15 06:59:52;;;;;;;8.90;1.45;;;;;;;26.70;42.45;99875.63;4950273;29;20437;-89
2023/09/15 07:02:17;;;;;;;4.38;3.50;;;;;;;26.92;41.93;99919.91;4934280;29;20129;-89
2023/09/15 07:04:43;;;;;;;1.95;1.45;;;;;;;27.12;41.03;99867.72;4950948;28;20078;-89
2023/09/15 07:07:09;;;;;;;12.27;2.45;;;;;;;27.73;40.31;99892.59;4951015;29;20043;-90
2023/09/15 07:09:35;;;;;;;10.25;2.45;;;;;;;27.75;39.35;99883.34;4950280;28;20509;-89
2023/09/15 07:12:01;;;;;;;4.15;1.42;;;;;;;27.96;39.17;99909.66;4950064;28;20035;-89
2023/09/15 07:14:27;;;;;;;2.55;2.20;;;;;;;28.03;39.16;99875.63;4950428;28;20027;-90
2023/09/15 07:16:53;;;;;;;2.03;1.40;;;;;;;28.25;39.10;99880.06;4950663;28;20546;-89
2023/09/15 07:19:18;;;;;;;2.67;1.55;;;;;;;28.60;39.06;99865.31;4951714;28;20049;-89
2023/09/15 07:21:44;;;;;;;8.02;2.30;;;;;;;28.43;39.19;99872.19;4953997;28;20039;-91
2023/09/15 07:24:10;;;;;;;2.53;1.55;;;;;;;28.61;37.70;99850.78;4962378;28;20425;-90
2023/09/15 07:26:36;;;;;;;2.80;2.20;;;;;;;28.87;38.14;99889.16;4957613;28;20023;-90
2023/09/15 07:29:03;;;;;;;6.20;2.28;;;;;;;28.81;37.89;99881.56;4993768;28;20117;-90
2023/09/15 07:31:33;;;;;;;4.53;2.35;;;;;;;29.31;37.61;99902.50;4975867;28;20049;-91
2023/09/15 07:33:58;;;;;;;3.95;2.45;;;;;;;29.14;38.04;99860.53;4993513;28;20583;-90
2023/09/15 07:36:24;;;;;;;3.38;2.38;;;;;;;28.98;36.74;99892.75;4993060;28;20038;-90
2023/09/15 07:38:50;;;;;;;4.22;1.85;;;;;;;28.91;38.55;99882.44;4975752;28;20035;-88
2023/09/15 07:41:18;;;;;;;5.03;2.95;;;;;;;29.31;37.97;99852.75;4976270;28;20357;-89
2023/09/15 07:43:44;;;;;;;4.25;2.85;;;;;;;29.78;36.50;99882.81;4993530;28;20069;-91
2023/09/15 07:46:09;;;;;;;5.07;2.45;;;;;;;29.67;38.25;99889.25;4993544;28;20056;-89
2023/09/15 07:48:35;;;;;;;4.18;2.63;;;;;;;29.65;35.92;99889.41;4992792;28;20516;-90
2023/09/15 07:51:00;;;;;;;3.72;3.15;;;;;;;29.30;37.94;99892.63;4975545;28;20133;-89
2023/09/15 07:53:26;;;;;;;3.75;2.33;;;;;;;29.14;36.29;99854.25;4993119;28;20037;-90
2023/09/15 07:55:51;;;;;;;5.00;1.88;;;;;;;29.75;35.14;99899.41;4993411;28;20117;-87
2023/09/15 07:58:17;;;;;;;4.53;2.78;;;;;;;29.27;38.06;99901.94;4968557;28;20776;-91
2023/09/15 08:00:42;;;;;;;3.45;2.35;;;;;;;29.44;37.78;99869.63;4937055;28;20039;-90
2023/09/15 08:03:08;;;;;;;8.23;2.22;;;;;;;29.73;37.38;99877.81;4954518;28;20031;-89
2023/09/15 08:05:34;;;;;;;5.60;4.03;;;;;;;29.86;37.72;99880.31;4967434;28;20085;-88
2023/09/15 08:07:59;;;;;;;2.92;1.98;;;;;;;29.88;38.43;99882.88;4972073;28;20173;-89
2023/09/15 08:10:26;;;;;;;2.03;1.20;;;;;;;30.11;36.60;99888.88;4973150;28;20034;-89
2023/09/15 08:12:52;;;;;;;3.72;2.17;;;;;;;30.31;35.85;99840.75;4973564;28;20187;-89
2023/09/15 08:15:22;;;;;;;15.52;2.88;;;;;;;30.32;36.72;99827.00;4973212;28;20049;-90
2023/09/15 08:17:48;;;;;;;1.80;1.45;;;;;;;30.82;34.97;99865.81;4955751;28;20432;-90
2023/09/15 08:20:14;;;;;;;4.07;2.35;;;;;;;30.66;34.13;99908.16;4972839;28;20046;-91
2023/09/15 08:22:39;;;;;;;3.72;2.92;;;;;;;30.33;34.86;99865.94;4955045;28;20039;-91
2023/09/15 08:25:10;;;;;;;3.78;2.53;;;;;;;29.89;37.45;99816.59;5004441;28;20047;-90
2023/09/15 08:27:38;;;;;;;4.15;2.33;;;;;;;30.39;35.31;99861.78;5012607;28;20041;-90
2023/09/15 08:30:14;;;;;;;1.90;1.67;;;;;;;29.94;36.29;99826.06;5002374;28;20117;-94
2023/09/15 08:32:41;;;;;;;5.85;1.63;;;;;;;30.03;35.59;99829.78;4988304;28;20046;-92
2023/09/15 08:35:07;;;;;;;2.90;2.38;;;;;;;29.78;35.13;99850.19;5000135;28;20091;-94
2023/09/15 08:37:32;;;;;;;12.43;2.17;;;;;;;29.95;36.23;99859.53;4994971;28;20511;-93
2023/09/15 08:39:58;;;;;;;2.65;1.92;;;;;;;30.15;35.24;99854.94;4995326;28;20037;-92
2023/09/15 08:42:26;;;;;;;5.60;2.58;;;;;;;30.21;35.53;99858.94;4994744;28;20045;-91
2023/09/15 08:44:53;;;;;;;5.13;2.97;;;;;;;30.28;34.94;99828.28;4990590;28;20038;-92
2023/09/15 08:47:23;;;;;;;3.53;2.53;;;;;;;30.32;35.69;99837.00;4964291;28;20489;-93
2023/09/15 08:49:54;;;;;;;2.58;1.77;;;;;;;30.48;35.53;99833.72;4956583;28;20085;-87
2023/09/15 08:52:20;;;;;;;2.80;2.15;;;;;;;30.56;34.00;99819.38;4970822;28;20035;-90
2023/09/15 08:54:45;;;;;;;3.75;2.00;;;;;;;30.66;34.38;99842.81;4973007;28;20046;-87
2023/09/15 08:57:11;;;;;;;5.38;2.75;;;;;;;30.64;34.52;99808.56;4972809;28;20391;-87
2023/09/15 08:59:39;;;;;;;6.25;3.63;;;;;;;30.36;34.46;99846.59;4974486;28;20086;-86
2023/09/15 09:02:05;;;;;;;4.03;2.50;;;;;;;30.20;34.45;99821.84;4982949;28;20122;-87
2023/09/15 09:04:30;;;;;;;3.45;2.75;;;;;;;29.67;35.74;99780.53;4979426;28;20126;-84
2023/09/15 09:06:59;;;;;;;4.53;2.40;;;;;;;29.80;36.57;99821.91;4951722;28;20090;-85
2023/09/15 09:09:25;;;;;;;5.45;2.20;;;;;;;29.88;36.02;99813.03;4951361;28;20074;-87
2023/09/15 09:11:51;;;;;;;2.83;1.98;;;;;;;29.91;35.57;99784.72;4965212;28;20054;-85
2023/09/15 09:14:16;;;;;;;3.75;2.20;;;;;;;30.23;34.53;99837.88;4959946;28;20118;-88
2023/09/15 09:16:42;;;;;;;17.92;2.78;;;;;;;30.36;34.62;99803.06;4957232;28;20031;-81
2023/09/15 09:19:09;;;;;;;3.33;2.17;;;;;;;30.80;32.66;99814.25;4952012;28;20030;-86
2023/09/15 09:21:34;;;;;;;8.95;2.38;;;;;;;30.95;32.99;99794.66;4956149;28;20035;-86
2023/09/15 09:24:00;;;;;;;11.32;3.08;;;;;;;30.79;33.31;99796.19;4961140;28;20079;-83
2023/09/15 09:26:26;;;;;;;5.13;2.17;;;;;;;30.50;33.59;99804.47;4964871;28;20110;-87
2023/09/15 09:28:57;;;;;;;3.80;2.63;;;;;;;30.25;33.09;99787.78;4963046;28;20127;-83
2023/09/15 09:31:24;;;;;;;5.38;2.67;;;;;;;30.32;33.03;99780.75;4957146;28;20034;-85
2023/09/15 09:33:50;;;;;;;3.08;2.30;;;;;;;30.41;33.28;99784.44;4959054;28;20131;-84
2023/09/15 09:36:21;;;;;;;1.60;1.33;;;;;;;30.60;33.02;99790.81;4974657;28;20023;-85
2023/09/15 09:38:50;;;;;;;4.13;2.33;;;;;;;30.57;33.33;99800.16;4960911;28;20054;-85
2023/09/15 09:41:25;;;;;;;3.15;1.98;;;;;;;30.56;33.33;99764.94;4956268;28;20034;-89
2023/09/15 09:43:51;;;;;;;3.13;1.83;;;;;;;30.42;32.61;99760.84;4949664;28;20397;-87
2023/09/15 09:46:20;;;;;;;1.83;1.70;;;;;;;30.75;32.50;99762.09;4954482;28;20037;-89
2023/09/15 09:48:48;;;;;;;4.57;1.80;;;;;;;30.76;32.46;99757.53;4946364;28;20039;-91
2023/09/15 09:51:14;;;;;;;2.05;1.63;;;;;;;30.43;32.14;99755.25;4964285;28;20046;-84
2023/09/15 09:53:40;;;;;;;3.90;2.53;;;;;;;30.50;32.61;99748.19;4952918;28;20031;-85
2023/09/15 09:56:06;;;;;;;3.22;2.25;;;;;;;30.75;32.42;99748.47;4962606;28;20026;-84
2023/09/15 09:58:33;;;;;;;5.38;2.45;;;;;;;30.82;32.13;99768.66;4965533;28;20508;-85
2023/09/15 10:00:59;;;;;;;5.13;2.10;;;;;;;30.70;32.49;99775.31;4962403;28;20505;-85
2023/09/15 10:03:25;;;;;;;1.83;1.60;;;;;;;30.98;31.83;99787.06;4970037;28;20050;-84
2023/09/15 10:05:52;;;;;;;8.10;2.97;;;;;;;30.94;31.73;99782.06;4958942;28;20430;-83
2023/09/15 10:08:18;;;;;;;7.68;1.55;;;;;;;30.86;31.59;99752.84;4951188;28;20098;-85
2023/09/15 10:10:46;;;;;;;2.67;1.67;;;;;;;30.92;31.29;99737.78;4951388;28;20035;-85
2023/09/15 10:13:14;;;;;;;3.05;1.90;;;;;;;30.98;30.81;99738.06;4957184;28;20027;-84
2023/09/15 10:15:41;;;;;;;3.67;1.73;;;;;;;31.17;30.43;99742.53;4970718;28;20050;-84
2023/09/15 10:18:08;;;;;;;2.30;1.60;;;;;;;30.90;30.72;99735.22;4951845;28;20035;-85
2023/09/15 10:20:39;;;;;;;3.28;1.98;;;;;;;31.17;30.80;99788.84;4964339;28;20030;-84
2023/09/15 10:23:06;;;;;;;3.20;2.22;;;;;;;31.19;30.53;99726.03;4957451;28;20023;-85
2023/09/15 10:25:44;;;;;;;4.43;2.20;;;;;;;31.09;30.58;99750.59;4964408;28;20035;-83
2023/09/15 10:28:11;;;;;;;1.35;1.25;;;;;;;31.27;32.10;99731.53;4951172;28;20035;-89
2023/09/15 10:30:40;;;;;;;3.58;2.42;;;;;;;31.47;30.83;99775.00;4952054;28;20027;-82
2023/09/15 10:33:10;;;;;;;2.60;1.45;;;;;;;31.13;30.89;99743.84;4952572;28;20031;-88
2023/09/15 10:35:40;;;;;;;6.65;2.45;;;;;;;31.44;30.62;99748.06;4934276;28;20031;-92
2023/09/15 10:38:07;;;;;;;2.40;1.70;;;;;;;31.92;30.48;99744.03;4957042;28;20089;-89
2023/09/15 10:40:49;;;;;;;4.35;2.38;;;;;;;31.72;29.91;99740.63;4960582;28;20043;-87
2023/09/15 10:43:19;;;;;;;2.33;1.65;;;;;;;31.58;30.02;99739.34;4968900;28;20038;-88
2023/09/15 10:45:57;;;;;;;3.28;2.10;;;;;;;31.39;30.45;99715.81;4971791;28;20030;-87
2023/09/15 10:48:23;;;;;;;2.40;2.08;;;;;;;31.56;30.45;99761.31;4968239;28;20107;-90
2023/09/15 10:50:49;;;;;;;4.63;2.08;;;;;;;31.59;30.30;99746.50;4961827;28;20118;-87
2023/09/15 10:53:15;;;;;;;2.63;2.15;;;;;;;31.50;30.09;99707.38;4954446;28;20121;-88
2023/09/15 10:55:41;;;;;;;7.00;1.77;;;;;;;31.46;29.66;99695.06;4955469;28;20027;-88
2023/09/15 10:58:07;;;;;;;3.25;1.73;;;;;;;31.56;30.15;99714.13;4962334;28;20057;-89
2023/09/15 11:00:33;;;;;;;4.90;2.30;;;;;;;31.50;30.24;99685.59;4961305;28;20035;-87
2023/09/15 11:02:59;;;;;;;2.63;1.88;;;;;;;31.70;30.09;99734.47;4955202;28;20039;-85
2023/09/15 11:05:28;;;;;;;3.58;2.28;;;;;;;30.98;30.86;99686.31;4955452;28;20051;-87
2023/09/15 11:07:58;;;;;;;1.70;1.35;;;;;;;30.89;30.19;99670.88;4967383;28;20470;-85
2023/09/15 11:10:32;;;;;;;1.95;1.63;;;;;;;31.18;30.42;99683.44;4967112;28;20441;-87
2023/09/15 11:13:02;;;;;;;3.67;2.03;;;;;;;31.59;29.76;99689.28;4967953;28;20027;-87
2023/09/15 11:15:32;;;;;;;3.03;2.15;;;;;;;31.50;30.02;99692.91;4968276;28;20568;-90
2023/09/15 11:17:57;;;;;;;3.38;2.10;;;;;;;30.85;30.88;99674.94;4937416;28;20160;-85
2023/09/15 11:20:26;;;;;;;3.50;1.77;;;;;;;30.87;30.72;99695.53;4955432;29;20183;-90
2023/09/15 11:22:56;;;;;;;4.00;2.88;;;;;;;31.06;30.68;99696.44;4954675;29;20034;-88
2023/09/15 11:25:21;;;;;;;3.60;2.30;;;;;;;31.26;30.34;99688.09;4953665;29;20035;-90
2023/09/15 11:27:48;;;;;;;3.17;1.50;;;;;;;31.88;30.20;99716.19;4954731;28;20142;-88
2023/09/15 11:30:14;;;;;;;3.90;2.33;;;;;;;31.22;30.00;99676.69;4964963;28;20028;-90
2023/09/15 11:32:46;;;;;;;2.28;1.60;;;;;;;30.99;30.21;99668.97;4936779;28;20034;-88
2023/09/15 11:35:12;;;;;;;2.90;2.10;;;;;;;31.40;29.98;99706.59;4953920;28;20130;-87